Time;durP1;ratioP1;P1;durP2;ratioP2;P2;SDS_P1;SDS_P2;PMS_P1;PMS_P2;Temp;Humidity;BMP_temperature;BMP_pressure;BME280_temperature;BME280_humidity;BME280_pressure;Samples;Min_cycle;Max_cycle;Signal;HPM_P1;HPM_P2
2024/01/24 00:00:32;;;;;;;8.18;3.55;;;11.00;99.90;;;;;;6142304;23;20441;-86
2024/01/24 00:02:59;;;;;;;6.97;3.53;;;11.10;99.90;;;;;;6141889;23;20010;-86
2024/01/24 00:05:26;;;;;;;6.65;2.97;;;11.00;99.90;;;;;;6142055;23;20401;-86
2024/01/24 00:07:53;;;;;;;7.88;3.22;;;11.10;99.90;;;;;;6141971;23;20017;-86
2024/01/24 00:10:19;;;;;;;9.35;3.20;;;11.10;99.90;;;;;;6142214;23;20153;-86
2024/01/24 00:12:46;;;;;;;8.40;3.08;;;11.10;99.90;;;;;;6142267;23;20065;-86
2024/01/24 00:15:13;;;;;;;10.38;2.45;;;11.10;99.90;;;;;;6142092;23;20054;-86
2024/01/24 00:17:40;;;;;;;5.20;2.45;;;11.20;99.90;;;;;;6141734;23;20022;-86
2024/01/24 00:20:07;;;;;;;8.75;2.50;;;11.20;99.90;;;;;;6142426;23;20102;-86
2024/01/24 00:22:34;;;;;;;4.82;2.03;;;11.20;99.90;;;;;;6141688;23;20102;-86
2024/01/24 00:25:01;;;;;;;8.98;2.00;;;11.30;99.90;;;;;;6141945;23;20045;-86
2024/01/24 00:27:27;;;;;;;5.57;1.85;;;11.30;99.90;;;;;;6142114;23;20093;-86
2024/01/24 00:29:54;;;;;;;9.40;2.30;;;11.40;99.90;;;;;;6166313;23;20014;-85
2024/01/24 00:32:21;;;;;;;7.95;2.00;;;11.70;99.90;;;;;;6142142;23;20068;-86
2024/01/24 00:34:48;;;;;;;10.13;2.08;;;11.50;99.90;;;;;;6142077;23;20010;-86
2024/01/24 00:37:15;;;;;;;10.68;1.83;;;11.60;99.90;;;;;;6142026;23;20018;-86
2024/01/24 00:39:41;;;;;;;6.25;1.55;;;11.50;99.90;;;;;;6142181;23;20445;-86
2024/01/24 00:42:08;;;;;;;9.55;2.22;;;11.60;99.90;;;;;;6142190;23;20143;-86
2024/01/24 00:44:38;;;;;;;8.90;1.77;;;11.50;99.90;;;;;;6141967;23;20054;-86
2024/01/24 00:47:06;;;;;;;6.70;1.55;;;11.50;99.90;;;;;;6141886;23;20018;-86
2024/01/24 00:49:32;;;;;;;10.85;2.17;;;11.50;99.90;;;;;;6141872;23;20061;-86
2024/01/24 00:51:59;;;;;;;7.47;1.75;;;11.50;99.90;;;;;;6142051;23;20016;-86
2024/01/24 00:54:25;;;;;;;7.93;1.70;;;11.60;99.90;;;;;;6142137;23;20014;-86
2024/01/24 00:56:52;;;;;;;9.60;2.00;;;11.40;99.90;;;;;;6142107;23;20089;-85
2024/01/24 00:59:19;;;;;;;9.00;1.65;;;11.50;99.90;;;;;;6166283;23;20014;-86
2024/01/24 01:01:46;;;;;;;10.43;2.08;;;11.50;99.90;;;;;;6142012;23;20021;-86
2024/01/24 01:04:12;;;;;;;6.22;1.50;;;11.50;99.90;;;;;;6166207;23;20021;-86
2024/01/24 01:06:39;;;;;;;9.80;1.77;;;11.50;99.90;;;;;;6142048;23;20010;-86
2024/01/24 01:09:06;;;;;;;7.38;1.63;;;11.50;99.90;;;;;;6141984;23;20501;-86
2024/01/24 01:11:32;;;;;;;7.43;1.45;;;11.50;99.90;;;;;;6141813;23;20056;-86
2024/01/24 01:13:59;;;;;;;10.18;2.00;;;11.50;99.90;;;;;;6141812;23;20073;-86
2024/01/24 01:16:25;;;;;;;6.68;1.85;;;11.60;99.90;;;;;;6141624;23;20018;-86
2024/01/24 01:18:52;;;;;;;8.00;1.50;;;11.50;99.90;;;;;;6142059;23;20041;-86
2024/01/24 01:21:19;;;;;;;8.18;1.42;;;11.60;99.90;;;;;;6166061;23;20014;-86
2024/01/24 01:23:45;;;;;;;7.72;1.17;;;11.60;99.90;;;;;;6165932;23;20397;-86
2024/01/24 01:26:13;;;;;;;4.40;1.27;;;11.60;99.90;;;;;;6141875;23;20469;-86
2024/01/24 01:28:39;;;;;;;6.25;1.15;;;11.70;99.90;;;;;;6166169;23;20567;-86
2024/01/24 01:31:06;;;;;;;3.83;1.65;;;11.50;99.90;;;;;;6141809;23;20018;-86
2024/01/24 01:33:33;;;;;;;4.07;1.10;;;11.80;99.90;;;;;;6166078;23;20006;-86
2024/01/24 01:35:59;;;;;;;6.65;1.48;;;11.60;99.90;;;;;;6143478;23;20068;-86
2024/01/24 01:38:26;;;;;;;4.18;1.15;;;11.50;99.90;;;;;;6143319;23;20010;-85
2024/01/24 01:40:53;;;;;;;6.38;1.40;;;11.60;99.90;;;;;;6143505;23;20014;-86
2024/01/24 01:43:20;;;;;;;6.47;1.70;;;11.60;99.90;;;;;;6167977;23;20014;-85
2024/01/24 01:45:47;;;;;;;5.57;1.20;;;11.60;99.90;;;;;;6168438;23;20010;-86
2024/01/24 01:48:15;;;;;;;6.70;1.38;;;11.70;99.90;;;;;;6143189;23;20014;-86
2024/01/24 01:50:41;;;;;;;5.38;1.40;;;11.80;99.90;;;;;;6167782;23;20017;-86
2024/01/24 01:53:08;;;;;;;4.90;1.10;;;11.70;99.90;;;;;;6143238;23;20006;-86
2024/01/24 01:55:35;;;;;;;5.53;1.30;;;11.70;99.90;;;;;;6143332;23;20014;-86
2024/01/24 01:58:03;;;;;;;5.20;1.10;;;11.80;99.90;;;;;;6143062;23;20014;-86
2024/01/24 02:00:31;;;;;;;5.13;1.00;;;11.90;99.90;;;;;;6143194;23;20059;-86
2024/01/24 02:02:58;;;;;;;6.93;1.30;;;11.90;99.90;;;;;;6143084;23;20101;-86
2024/01/24 02:05:24;;;;;;;6.00;1.05;;;11.90;99.90;;;;;;6143509;23;20045;-86
2024/01/24 02:07:51;;;;;;;10.30;1.40;;;11.90;99.90;;;;;;6143250;23;20100;-86
2024/01/24 02:10:18;;;;;;;5.78;1.10;;;12.00;99.90;;;;;;6143092;23;20016;-86
2024/01/24 02:12:44;;;;;;;7.03;1.48;;;12.00;99.90;;;;;;6143119;23;20018;-85
2024/01/24 02:15:11;;;;;;;8.95;1.20;;;12.00;99.90;;;;;;6143247;23;20013;-85
2024/01/24 02:17:38;;;;;;;6.50;0.98;;;11.90;99.90;;;;;;6143209;23;20018;-86
2024/01/24 02:20:09;;;;;;;6.90;1.30;;;11.90;99.90;;;;;;6142944;23;20018;-86
2024/01/24 02:22:36;;;;;;;8.75;1.20;;;11.90;99.90;;;;;;6142912;23;20449;-85
2024/01/24 02:25:04;;;;;;;3.67;0.82;;;11.90;99.90;;;;;;6143246;23;20774;-86
2024/01/24 02:27:30;;;;;;;8.75;1.35;;;11.90;99.90;;;;;;6142759;23;20013;-86
2024/01/24 02:29:57;;;;;;;7.53;1.65;;;11.90;99.90;;;;;;6142930;23;20021;-86
2024/01/24 02:32:24;;;;;;;4.32;0.90;;;11.90;99.90;;;;;;6142898;23;20006;-86
2024/01/24 02:34:51;;;;;;;5.97;0.98;;;11.90;99.90;;;;;;6142905;23;20536;-85
2024/01/24 02:37:19;;;;;;;7.43;1.05;;;11.90;99.90;;;;;;6142955;23;20032;-85
2024/01/24 02:39:47;;;;;;;5.95;1.30;;;12.30;99.90;;;;;;6142884;23;20013;-86
2024/01/24 02:42:14;;;;;;;7.13;1.23;;;11.90;99.90;;;;;;6167486;23;20010;-86
2024/01/24 02:44:40;;;;;;;6.82;1.40;;;11.90;99.90;;;;;;6142932;23;20079;-86
2024/01/24 02:47:07;;;;;;;5.20;1.40;;;11.80;99.90;;;;;;6143034;23;20084;-86
2024/01/24 02:49:33;;;;;;;7.15;1.58;;;12.00;99.90;;;;;;6142881;23;20445;-86
2024/01/24 02:52:02;;;;;;;6.88;1.48;;;11.80;99.90;;;;;;6142749;23;20056;-86
2024/01/24 02:54:29;;;;;;;5.65;1.17;;;11.80;99.90;;;;;;6143052;23;20096;-86
2024/01/24 02:56:55;;;;;;;7.28;1.42;;;11.80;99.90;;;;;;6142709;23;20607;-86
2024/01/24 02:59:22;;;;;;;3.92;0.90;;;11.90;99.90;;;;;;6142825;23;20108;-86
2024/01/24 03:01:49;;;;;;;6.97;1.55;;;11.70;99.90;;;;;;6142786;23;20010;-85
2024/01/24 03:04:15;;;;;;;6.43;1.30;;;11.70;99.90;;;;;;6142785;23;20655;-86
2024/01/24 03:06:42;;;;;;;8.93;1.55;;;11.70;99.90;;;;;;6142730;23;20010;-85
2024/01/24 03:09:08;;;;;;;8.80;1.60;;;11.70;99.90;;;;;;6142267;23;20112;-86
2024/01/24 03:11:37;;;;;;;7.55;1.52;;;11.70;99.90;;;;;;6142603;23;20005;-86
2024/01/24 03:14:04;;;;;;;7.78;1.30;;;11.60;99.90;;;;;;6142448;23;20656;-85
2024/01/24 03:16:31;;;;;;;9.65;1.95;;;11.70;99.90;;;;;;6142191;23;20022;-86
2024/01/24 03:18:58;;;;;;;13.35;2.10;;;11.50;99.90;;;;;;6142412;23;20020;-86
2024/01/24 03:21:24;;;;;;;8.35;1.60;;;11.50;99.90;;;;;;6142334;23;20021;-86
2024/01/24 03:23:51;;;;;;;10.52;1.92;;;11.50;99.90;;;;;;6142142;23;20066;-85
2024/01/24 03:26:18;;;;;;;10.95;1.75;;;11.40;99.90;;;;;;6142249;23;20472;-86
2024/01/24 03:28:44;;;;;;;8.85;1.70;;;11.40;99.90;;;;;;6142300;23;20025;-86
2024/01/24 03:31:11;;;;;;;8.60;1.65;;;11.40;99.90;;;;;;6142511;23;20012;-86
2024/01/24 03:33:38;;;;;;;9.65;1.92;;;11.30;99.90;;;;;;6142113;23;20032;-85
2024/01/24 03:36:05;;;;;;;11.48;1.88;;;11.30;99.90;;;;;;6142534;23;20014;-86
2024/01/24 03:38:31;;;;;;;11.43;1.77;;;11.30;99.90;;;;;;6142232;23;20024;-86
2024/01/24 03:40:58;;;;;;;13.95;1.80;;;11.40;99.90;;;;;;6142033;23;20455;-86
2024/01/24 03:43:24;;;;;;;11.00;2.25;;;11.20;99.90;;;;;;6142274;23;20021;-86
2024/01/24 03:45:51;;;;;;;14.45;2.42;;;11.50;99.90;;;;;;6166712;23;20021;-85
2024/01/24 03:48:17;;;;;;;9.93;2.35;;;11.20;99.90;;;;;;6141816;23;20078;-86
2024/01/24 03:50:44;;;;;;;17.27;2.15;;;11.10;99.90;;;;;;6142280;23;20430;-86
2024/01/24 03:53:11;;;;;;;16.98;2.75;;;11.10;99.90;;;;;;6142384;23;20017;-86
2024/01/24 03:55:37;;;;;;;11.48;2.30;;;11.00;99.90;;;;;;6142208;23;20466;-86
2024/01/24 03:58:04;;;;;;;13.25;2.15;;;11.10;99.90;;;;;;6142074;23;20318;-86
2024/01/24 04:00:30;;;;;;;13.90;2.45;;;11.10;99.90;;;;;;6142401;23;20014;-86
2024/01/24 04:02:57;;;;;;;11.07;2.60;;;11.10;99.90;;;;;;6142098;23;20014;-86
2024/01/24 04:05:24;;;;;;;15.90;2.53;;;11.10;99.90;;;;;;6166659;23;20009;-86
2024/01/24 04:07:51;;;;;;;14.25;2.50;;;11.60;99.90;;;;;;6142094;23;20078;-86
2024/01/24 04:10:17;;;;;;;14.40;2.67;;;11.10;99.90;;;;;;6141992;23;20077;-86
2024/01/24 04:12:44;;;;;;;14.57;2.72;;;11.10;99.90;;;;;;6141998;23;20014;-86
2024/01/24 04:15:11;;;;;;;18.88;2.90;;;11.10;99.90;;;;;;6142210;23;20014;-86
2024/01/24 04:17:37;;;;;;;19.05;2.45;;;11.00;99.90;;;;;;6141772;23;20018;-85
2024/01/24 04:20:05;;;;;;;16.20;2.75;;;11.30;99.90;;;;;;6142212;23;20018;-86
2024/01/24 04:22:32;;;;;;;21.45;3.00;;;11.10;99.90;;;;;;6142080;23;20093;-85
2024/01/24 04:25:00;;;;;;;13.63;2.65;;;11.10;99.90;;;;;;6142386;23;20022;-86
2024/01/24 04:27:27;;;;;;;16.15;2.60;;;11.30;99.90;;;;;;6141910;23;20026;-86
2024/01/24 04:29:54;;;;;;;14.40;2.60;;;11.20;99.90;;;;;;6142174;23;20048;-86
2024/01/24 04:32:21;;;;;;;14.98;2.53;;;11.10;99.90;;;;;;6141999;23;20010;-86
2024/01/24 04:34:47;;;;;;;14.65;2.65;;;11.40;99.90;;;;;;6142095;23;20010;-85
2024/01/24 04:37:14;;;;;;;17.58;3.30;;;11.00;99.90;;;;;;6141918;23;20010;-85
2024/01/24 04:39:41;;;;;;;18.45;2.60;;;10.90;99.90;;;;;;6142078;23;20096;-86
2024/01/24 04:42:07;;;;;;;22.02;3.10;;;10.80;99.90;;;;;;6141994;23;20014;-86
2024/01/24 04:44:34;;;;;;;14.40;2.65;;;10.70;99.90;;;;;;6142249;23;20021;-86
2024/01/24 04:47:01;;;;;;;18.15;3.33;;;10.80;99.90;;;;;;6141599;23;20104;-86
2024/01/24 04:49:27;;;;;;;16.60;3.03;;;10.80;99.90;;;;;;6142119;23;20096;-85
2024/01/24 04:51:54;;;;;;;18.63;2.95;;;10.60;99.90;;;;;;6166165;23;20016;-86
2024/01/24 04:54:20;;;;;;;22.70;4.03;;;10.50;99.90;;;;;;6141843;23;20068;-86
2024/01/24 04:56:47;;;;;;;22.83;3.33;;;10.70;99.90;;;;;;6165985;23;20010;-86
2024/01/24 04:59:17;;;;;;;27.38;3.88;;;10.30;99.90;;;;;;6142001;23;20014;-86
2024/01/24 05:01:44;;;;;;;16.90;2.60;;;10.30;99.90;;;;;;6141800;23;20529;-86
2024/01/24 05:04:11;;;;;;;18.35;3.72;;;10.20;99.90;;;;;;6141961;23;20018;-86
2024/01/24 05:06:38;;;;;;;28.90;4.28;;;10.20;99.90;;;;;;6166228;23;20014;-86
2024/01/24 05:09:04;;;;;;;17.92;3.10;;;10.20;99.90;;;;;;6167860;23;20022;-86
2024/01/24 05:11:31;;;;;;;20.77;3.58;;;10.20;99.90;;;;;;6143701;23;20010;-86
2024/01/24 05:14:03;;;;;;;20.60;3.25;;;10.30;99.90;;;;;;6167547;23;20310;-86
2024/01/24 05:16:29;;;;;;;23.48;4.00;;;10.20;99.90;;;;;;6143606;23;20018;-86
2024/01/24 05:18:56;;;;;;;22.20;3.00;;;10.20;99.90;;;;;;6143702;23;20018;-86
2024/01/24 05:21:23;;;;;;;20.88;3.72;;;11.10;99.90;;;;;;6168235;23;20014;-86
2024/01/24 05:23:53;;;;;;;19.42;3.78;;;10.30;99.90;;;;;;6168078;23;20388;-86
2024/01/24 05:26:20;;;;;;;17.77;3.58;;;10.20;99.90;;;;;;6143604;23;20017;-86
2024/01/24 05:28:46;;;;;;;21.95;3.47;;;11.10;99.90;;;;;;6143840;23;20017;-86
2024/01/24 05:31:13;;;;;;;21.10;3.90;;;10.20;99.90;;;;;;6149631;23;20028;-86
2024/01/24 05:33:40;;;;;;;21.38;3.63;;;10.30;99.90;;;;;;6143444;23;20014;-86
2024/01/24 05:36:06;;;;;;;23.25;3.97;;;10.50;99.90;;;;;;6143631;23;20013;-86
2024/01/24 05:38:33;;;;;;;20.95;3.60;;;10.20;99.90;;;;;;6143586;23;20020;-85
2024/01/24 05:41:00;;;;;;;25.23;3.90;;;10.60;99.90;;;;;;6143549;23;20398;-86
2024/01/24 05:43:27;;;;;;;20.63;3.25;;;10.20;99.90;;;;;;6143560;23;20097;-86
2024/01/24 05:45:54;;;;;;;25.88;4.25;;;10.30;99.90;;;;;;6143448;23;20393;-86
2024/01/24 05:48:21;;;;;;;23.77;4.00;;;10.30;99.90;;;;;;6143680;23;20096;-86
2024/01/24 05:50:47;;;;;;;23.65;4.13;;;10.30;99.90;;;;;;6167953;23;20124;-86
2024/01/24 05:53:14;;;;;;;26.05;3.72;;;10.30;99.90;;;;;;6168020;23;20028;-86
2024/01/24 05:55:40;;;;;;;26.25;3.35;;;10.30;99.90;;;;;;6143554;23;20095;-86
2024/01/24 05:58:07;;;;;;;23.73;4.32;;;10.40;99.90;;;;;;6143163;23;20014;-86
2024/01/24 06:00:34;;;;;;;27.63;3.95;;;10.70;99.90;;;;;;6143316;23;20069;-86
2024/01/24 06:03:00;;;;;;;32.33;5.25;;;10.30;99.90;;;;;;6143200;23;20021;-86
2024/01/24 06:05:27;;;;;;;25.83;3.90;;;10.30;99.90;;;;;;6143384;23;20010;-86
2024/01/24 06:07:54;;;;;;;29.23;4.18;;;10.30;99.90;;;;;;6143464;23;20450;-86
2024/01/24 06:10:21;;;;;;;24.80;5.18;;;10.30;99.90;;;;;;6168084;23;20033;-86
2024/01/24 06:12:48;;;;;;;23.63;3.60;;;10.40;99.90;;;;;;6143335;23;20014;-86
2024/01/24 06:15:14;;;;;;;23.08;4.15;;;10.30;99.90;;;;;;6143269;23;20072;-86
2024/01/24 06:17:41;;;;;;;29.65;4.60;;;10.30;99.90;;;;;;6143659;23;20314;-86
2024/01/24 06:20:09;;;;;;;21.33;4.03;;;10.30;99.90;;;;;;6167448;23;20014;-86
2024/01/24 06:22:35;;;;;;;35.55;5.28;;;10.30;99.90;;;;;;6143135;23;20022;-86
2024/01/24 06:25:03;;;;;;;30.35;4.95;;;10.40;99.90;;;;;;6143381;23;20023;-85
2024/01/24 06:27:29;;;;;;;24.58;4.13;;;10.30;99.90;;;;;;6143048;23;20014;-86
2024/01/24 06:29:56;;;;;;;25.33;4.30;;;10.30;99.90;;;;;;6167578;23;20021;-86
2024/01/24 06:32:23;;;;;;;19.65;3.30;;;10.30;99.90;;;;;;6143191;23;20006;-86
2024/01/24 06:34:49;;;;;;;31.13;4.30;;;10.30;99.90;;;;;;6143070;23;20010;-86
2024/01/24 06:37:16;;;;;;;27.45;5.10;;;10.50;99.90;;;;;;6142976;23;20014;-86
2024/01/24 06:39:43;;;;;;;23.75;4.30;;;10.40;99.90;;;;;;6142997;23;20619;-86
2024/01/24 06:42:10;;;;;;;24.98;4.15;;;10.30;99.90;;;;;;6143097;23;20088;-86
2024/01/24 06:44:37;;;;;;;19.48;4.53;;;10.50;99.90;;;;;;6167187;23;20025;-86
2024/01/24 06:47:04;;;;;;;29.00;4.32;;;10.30;99.90;;;;;;6142961;23;20018;-86
2024/01/24 06:49:30;;;;;;;21.25;4.57;;;10.30;99.90;;;;;;6167581;23;20010;-86
2024/01/24 06:51:57;;;;;;;30.33;4.65;;;10.20;99.90;;;;;;6143200;23;20476;-86
2024/01/24 06:54:23;;;;;;;27.73;4.45;;;10.20;99.90;;;;;;6143017;23;20010;-86
2024/01/24 06:56:50;;;;;;;33.33;5.40;;;10.20;99.90;;;;;;6167338;23;20010;-86
2024/01/24 06:59:17;;;;;;;22.20;4.15;;;10.10;99.90;;;;;;6142791;23;20010;-86
2024/01/24 07:01:44;;;;;;;29.52;4.32;;;10.10;99.90;;;;;;6143400;23;20018;-86
2024/01/24 07:04:11;;;;;;;32.00;5.30;;;10.00;99.90;;;;;;6142495;23;20532;-86
2024/01/24 07:06:38;;;;;;;27.33;4.63;;;10.00;99.90;;;;;;6142688;23;20349;-86
2024/01/24 07:09:04;;;;;;;25.20;4.68;;;10.10;99.90;;;;;;6142301;23;20021;-86
2024/01/24 07:11:31;;;;;;;25.92;4.97;;;10.10;99.90;;;;;;6142609;23;20089;-85
2024/01/24 07:13:58;;;;;;;25.52;4.47;;;10.00;99.90;;;;;;6166928;23;20016;-87
2024/01/24 07:16:24;;;;;;;36.17;4.57;;;10.40;99.90;;;;;;6141705;23;20018;-84
2024/01/24 07:18:51;;;;;;;20.58;3.50;;;10.00;99.90;;;;;;6142050;23;20029;-85
2024/01/24 07:21:18;;;;;;;19.35;3.47;;;9.90;99.90;;;;;;6141684;23;20024;-85
2024/01/24 07:23:45;;;;;;;25.75;4.63;;;10.00;99.90;;;;;;6141746;23;20068;-85
2024/01/24 07:26:12;;;;;;;28.02;4.28;;;10.20;99.90;;;;;;6142067;23;20014;-84
2024/01/24 07:28:38;;;;;;;16.65;3.50;;;10.10;99.90;;;;;;6142130;23;20072;-84
2024/01/24 07:31:06;;;;;;;24.23;4.05;;;10.20;99.90;;;;;;6166123;23;20018;-84
2024/01/24 07:33:33;;;;;;;18.25;3.45;;;10.20;99.90;;;;;;6142248;23;20077;-84
2024/01/24 07:35:59;;;;;;;22.95;3.58;;;10.20;99.90;;;;;;6142143;23;20010;-85
2024/01/24 07:38:26;;;;;;;23.13;4.07;;;10.60;99.90;;;;;;6142342;23;20018;-84
2024/01/24 07:40:52;;;;;;;29.58;3.80;;;10.20;99.90;;;;;;6142566;23;20020;-85
2024/01/24 07:43:20;;;;;;;24.80;4.53;;;10.60;99.90;;;;;;6142659;23;20045;-85
2024/01/24 07:45:46;;;;;;;19.48;4.18;;;10.20;99.90;;;;;;6142773;23;20013;-85
2024/01/24 07:48:14;;;;;;;21.55;3.80;;;10.10;99.90;;;;;;6142355;23;20017;-85
2024/01/24 07:50:42;;;;;;;25.77;3.75;;;10.10;99.90;;;;;;6142674;23;20093;-85
2024/01/24 07:53:09;;;;;;;30.63;4.22;;;10.00;99.90;;;;;;6142798;23;20041;-85
2024/01/24 07:55:35;;;;;;;27.83;5.22;;;10.00;99.90;;;;;;6142787;23;20100;-85
2024/01/24 07:58:03;;;;;;;27.38;4.15;;;10.00;99.90;;;;;;6142706;23;20052;-85
2024/01/24 08:00:30;;;;;;;25.15;4.10;;;10.00;99.90;;;;;;6142544;23;20018;-85
2024/01/24 08:02:58;;;;;;;31.45;4.47;;;10.00;99.90;;;;;;6142257;23;20009;-85
2024/01/24 08:05:25;;;;;;;30.25;4.78;;;10.00;99.90;;;;;;6142474;23;20018;-84
2024/01/24 08:07:51;;;;;;;34.33;5.53;;;10.00;99.90;;;;;;6141809;23;20029;-84
2024/01/24 08:10:18;;;;;;;22.60;4.15;;;9.80;99.90;;;;;;6166544;23;20081;-84
2024/01/24 08:12:45;;;;;;;21.10;3.97;;;9.90;99.90;;;;;;6167024;23;20018;-84
2024/01/24 08:15:12;;;;;;;24.48;4.10;;;9.90;99.90;;;;;;6141932;23;20010;-85
2024/01/24 08:17:39;;;;;;;29.42;4.72;;;10.60;99.90;;;;;;6142100;23;20054;-84
2024/01/24 08:20:08;;;;;;;28.45;4.88;;;9.90;99.90;;;;;;6142361;23;20017;-85
2024/01/24 08:22:35;;;;;;;26.17;4.85;;;9.90;99.90;;;;;;6142483;23;20044;-84
2024/01/24 08:25:03;;;;;;;28.08;3.63;;;9.90;99.90;;;;;;6142164;23;20014;-85
2024/01/24 08:27:29;;;;;;;24.00;4.35;;;9.90;99.90;;;;;;6142141;23;20018;-84
2024/01/24 08:29:59;;;;;;;25.95;3.88;;;10.00;99.90;;;;;;6142109;23;20471;-84
2024/01/24 08:32:26;;;;;;;25.88;4.07;;;9.90;99.90;;;;;;6141374;23;20074;-84
2024/01/24 08:34:52;;;;;;;24.52;4.25;;;9.90;99.90;;;;;;6141776;23;20006;-84
2024/01/24 08:37:20;;;;;;;28.52;5.13;;;9.90;99.90;;;;;;6142387;23;20496;-84
2024/01/24 08:39:47;;;;;;;24.80;4.63;;;9.90;99.90;;;;;;6141526;23;20018;-84
2024/01/24 08:42:13;;;;;;;31.70;5.00;;;10.00;99.90;;;;;;6142369;23;20020;-84
2024/01/24 08:44:40;;;;;;;26.25;4.93;;;10.00;99.90;;;;;;6143632;23;20536;-84
2024/01/24 08:47:08;;;;;;;19.65;3.70;;;10.60;99.90;;;;;;6142999;23;20085;-84
2024/01/24 08:49:34;;;;;;;30.67;5.45;;;10.20;99.90;;;;;;6143496;23;20010;-84
2024/01/24 08:52:02;;;;;;;25.48;3.95;;;10.00;99.90;;;;;;6143836;23;20021;-84
2024/01/24 08:54:28;;;;;;;22.83;3.95;;;10.00;99.90;;;;;;6143836;23;20057;-85
2024/01/24 08:56:57;;;;;;;19.55;3.47;;;10.00;99.90;;;;;;6144132;23;20353;-84
2024/01/24 08:59:23;;;;;;;26.65;4.75;;;10.10;99.90;;;;;;6143914;23;20018;-84
2024/01/24 09:01:55;;;;;;;26.17;4.03;;;10.10;99.90;;;;;;6143879;23;20089;-84
2024/01/24 09:04:21;;;;;;;25.45;4.47;;;10.10;99.90;;;;;;6143790;23;20672;-84
2024/01/24 09:06:48;;;;;;;24.55;4.55;;;10.40;99.90;;;;;;6143282;23;20025;-84
2024/01/24 09:09:15;;;;;;;24.75;4.03;;;10.00;99.90;;;;;;6143586;23;20104;-84
2024/01/24 09:11:42;;;;;;;24.60;4.55;;;10.10;99.90;;;;;;6143793;23;20381;-83
2024/01/24 09:14:08;;;;;;;22.13;4.13;;;10.00;99.90;;;;;;6143448;23;20021;-84
2024/01/24 09:16:35;;;;;;;21.67;3.95;;;10.00;99.90;;;;;;6143702;23;20402;-84
2024/01/24 09:19:02;;;;;;;23.85;3.55;;;10.30;99.90;;;;;;6168260;23;20045;-84
2024/01/24 09:21:29;;;;;;;28.55;4.63;;;10.00;99.90;;;;;;6143543;23;20014;-85
2024/01/24 09:23:55;;;;;;;30.23;4.50;;;10.00;99.90;;;;;;6144193;23;20013;-85
2024/01/24 09:26:22;;;;;;;24.08;4.20;;;10.00;99.90;;;;;;6143820;23;20024;-84
2024/01/24 09:28:48;;;;;;;25.45;4.18;;;10.10;99.90;;;;;;6144003;23;20377;-84
2024/01/24 09:31:15;;;;;;;22.60;4.68;;;10.00;99.90;;;;;;6143811;23;20064;-85
2024/01/24 09:33:42;;;;;;;26.95;4.45;;;9.90;99.90;;;;;;6143546;23;20045;-84
2024/01/24 09:36:09;;;;;;;23.75;4.22;;;9.90;99.90;;;;;;6167943;23;20014;-85
2024/01/24 09:38:36;;;;;;;29.25;4.78;;;9.90;99.90;;;;;;6144068;23;20018;-85
2024/01/24 09:41:08;;;;;;;29.15;4.78;;;9.90;99.90;;;;;;6168154;23;20010;-83
2024/01/24 09:43:38;;;;;;;27.35;4.50;;;10.00;99.90;;;;;;6168480;23;20025;-84
2024/01/24 09:46:12;;;;;;;23.63;4.63;;;10.00;99.90;;;;;;6143584;23;20024;-85
2024/01/24 09:48:41;;;;;;;26.30;4.53;;;10.20;99.90;;;;;;6168018;23;20010;-84
2024/01/24 09:51:09;;;;;;;31.90;4.68;;;10.00;99.90;;;;;;6143578;23;20014;-85
2024/01/24 09:53:38;;;;;;;22.80;4.57;;;10.00;99.90;;;;;;6168593;23;20018;-85
2024/01/24 09:56:06;;;;;;;24.23;3.97;;;10.00;99.90;;;;;;6143535;23;20025;-86
2024/01/24 09:58:33;;;;;;;17.92;3.47;;;10.10;99.90;;;;;;6143546;23;20017;-85
2024/01/24 10:01:02;;;;;;;25.80;4.10;;;10.70;99.90;;;;;;6143555;23;20342;-86
2024/01/24 10:03:31;;;;;;;23.13;4.30;;;10.10;99.90;;;;;;6167882;23;20013;-86
2024/01/24 10:05:59;;;;;;;20.10;3.88;;;10.20;99.90;;;;;;6143408;23;20472;-86
2024/01/24 10:08:25;;;;;;;28.80;4.43;;;10.10;99.90;;;;;;6143360;23;20022;-86
2024/01/24 10:10:52;;;;;;;21.85;3.92;;;10.20;99.90;;;;;;6143164;23;20006;-84
2024/01/24 10:13:19;;;;;;;26.95;4.68;;;10.50;99.90;;;;;;6143196;23;20014;-86
2024/01/24 10:15:46;;;;;;;26.27;4.07;;;10.30;99.90;;;;;;6146106;23;20013;-85
2024/01/24 10:18:12;;;;;;;24.98;4.15;;;10.30;99.90;;;;;;6148526;23;20330;-86
2024/01/24 10:20:41;;;;;;;24.80;3.63;;;10.30;99.90;;;;;;6148832;23;20341;-86
2024/01/24 10:23:09;;;;;;;26.92;4.45;;;10.40;99.90;;;;;;6147945;23;20020;-86
2024/01/24 10:25:39;;;;;;;19.52;4.20;;;10.30;99.90;;;;;;6172653;23;20017;-86
2024/01/24 10:28:12;;;;;;;20.38;3.83;;;10.40;99.90;;;;;;6173142;23;20096;-87
2024/01/24 10:30:43;;;;;;;21.55;3.20;;;10.40;99.90;;;;;;6148575;23;20010;-87
2024/01/24 10:33:11;;;;;;;23.83;4.20;;;11.00;99.90;;;;;;6148229;23;20010;-87
2024/01/24 10:35:39;;;;;;;26.55;4.03;;;10.70;99.90;;;;;;6148899;23;20437;-87
2024/01/24 10:38:05;;;;;;;26.67;4.28;;;10.40;99.90;;;;;;6172898;23;20046;-87
2024/01/24 10:40:32;;;;;;;24.65;4.05;;;10.40;99.90;;;;;;6149033;23;20100;-87
2024/01/24 10:43:05;;;;;;;21.73;3.67;;;10.40;99.90;;;;;;6148777;23;20009;-87
2024/01/24 10:45:34;;;;;;;21.55;3.65;;;10.40;99.90;;;;;;6148945;23;20025;-87
2024/01/24 10:48:01;;;;;;;25.13;4.30;;;10.60;99.90;;;;;;6173418;23;20013;-87
2024/01/24 10:50:30;;;;;;;27.10;4.82;;;10.40;99.90;;;;;;6148830;23;20100;-87
2024/01/24 10:52:58;;;;;;;24.35;4.18;;;10.40;99.90;;;;;;6148509;23;20014;-87
2024/01/24 10:55:25;;;;;;;23.95;4.25;;;10.40;99.90;;;;;;6148279;23;20060;-87
2024/01/24 10:57:53;;;;;;;23.42;4.03;;;10.40;99.90;;;;;;6148498;23;20092;-86
2024/01/24 11:00:22;;;;;;;26.48;4.30;;;10.40;99.90;;;;;;6173140;23;20024;-87
2024/01/24 11:02:53;;;;;;;22.42;3.55;;;10.40;99.90;;;;;;6148137;23;20013;-86
2024/01/24 11:05:32;;;;;;;21.13;3.92;;;10.40;99.90;;;;;;6148271;23;20022;-87
2024/01/24 11:08:11;;;;;;;24.25;4.00;;;10.40;99.90;;;;;;6148388;23;20021;-86
2024/01/24 11:10:41;;;;;;;18.13;2.67;;;10.30;99.90;;;;;;6148287;23;20009;-87
2024/01/24 11:13:10;;;;;;;27.15;4.72;;;10.30;99.90;;;;;;6148396;23;20009;-87
2024/01/24 11:15:37;;;;;;;22.60;3.67;;;10.60;99.90;;;;;;6148780;23;20009;-87
2024/01/24 11:18:23;;;;;;;21.52;4.28;;;10.40;99.90;;;;;;6148313;23;20043;-87
2024/01/24 11:20:55;;;;;;;23.27;4.07;;;10.40;99.90;;;;;;6148385;23;20017;-86
2024/01/24 11:23:42;;;;;;;23.25;4.85;;;10.30;99.90;;;;;;6148130;23;20017;-86
2024/01/24 11:26:10;;;;;;;22.98;3.90;;;10.30;99.90;;;;;;6148939;23;20021;-87
2024/01/24 11:28:38;;;;;;;21.45;3.38;;;10.30;99.90;;;;;;6148076;23;20017;-86
2024/01/24 11:31:07;;;;;;;21.38;3.97;;;10.30;99.90;;;;;;6148334;23;20413;-87
2024/01/24 11:33:34;;;;;;;18.08;3.53;;;10.30;99.90;;;;;;6148291;23;20449;-87
2024/01/24 11:36:03;;;;;;;23.48;4.80;;;10.30;99.90;;;;;;6148865;23;20071;-87
2024/01/24 11:38:30;;;;;;;19.98;3.80;;;10.30;99.90;;;;;;6147948;23;20071;-87
2024/01/24 11:40:57;;;;;;;20.52;3.25;;;10.30;99.90;;;;;;6148266;23;20096;-87
2024/01/24 11:43:28;;;;;;;25.38;4.78;;;10.30;99.90;;;;;;6148620;23;20405;-88
2024/01/24 11:45:55;;;;;;;21.45;3.83;;;10.30;99.90;;;;;;6149738;23;20013;-88
2024/01/24 11:48:24;;;;;;;18.73;3.80;;;10.30;99.90;;;;;;6147922;23;20095;-89
2024/01/24 11:50:58;;;;;;;24.27;3.83;;;11.20;99.90;;;;;;6149021;23;20009;-89
2024/01/24 11:53:26;;;;;;;16.85;3.65;;;10.30;99.90;;;;;;6148639;23;20068;-89
2024/01/24 11:56:04;;;;;;;19.35;4.47;;;10.30;99.90;;;;;;6148521;23;20010;-88
2024/01/24 11:58:31;;;;;;;21.65;3.97;;;10.30;99.90;;;;;;6148131;23;20009;-89
2024/01/24 12:01:07;;;;;;;23.10;3.60;;;10.30;99.90;;;;;;6148187;23;20025;-89
2024/01/24 12:03:34;;;;;;;20.25;3.65;;;10.30;99.90;;;;;;6148502;23;20444;-89
2024/01/24 12:06:01;;;;;;;28.80;4.10;;;10.30;99.90;;;;;;6148650;23;20104;-89
2024/01/24 12:08:29;;;;;;;29.88;4.50;;;10.30;99.90;;;;;;6148567;23;20017;-89
2024/01/24 12:10:55;;;;;;;16.73;3.75;;;10.30;99.90;;;;;;6149054;23;20024;-89
2024/01/24 12:13:23;;;;;;;22.65;3.85;;;10.30;99.90;;;;;;6148987;23;20010;-88
2024/01/24 12:15:53;;;;;;;25.88;4.50;;;10.20;99.90;;;;;;6149278;23;20041;-87
2024/01/24 12:18:19;;;;;;;22.38;3.90;;;10.20;99.90;;;;;;6149557;23;20022;-89
2024/01/24 12:20:48;;;;;;;23.00;4.28;;;10.20;99.90;;;;;;6150524;23;20021;-89
2024/01/24 12:23:15;;;;;;;19.98;3.80;;;10.20;99.90;;;;;;6149343;23;20017;-88
2024/01/24 12:25:43;;;;;;;25.38;3.97;;;10.20;99.90;;;;;;6149831;23;20017;-89
2024/01/24 12:28:11;;;;;;;25.52;3.75;;;10.20;99.90;;;;;;6149155;23;20017;-88
2024/01/24 12:30:38;;;;;;;17.48;3.65;;;10.20;99.90;;;;;;6149316;23;20014;-88
2024/01/24 12:33:07;;;;;;;27.40;4.03;;;10.20;99.90;;;;;;6147870;23;20071;-88
2024/01/24 12:35:34;;;;;;;20.95;3.45;;;10.20;99.90;;;;;;6148186;23;20037;-89
2024/01/24 12:38:04;;;;;;;23.05;3.85;;;10.20;99.90;;;;;;6148495;23;20017;-89
2024/01/24 12:40:31;;;;;;;27.40;4.53;;;10.30;99.90;;;;;;6172432;23;20020;-88